Veranopolis, Brazil
Current Conditions -  °F | °C
As of 7:00 AM on Sunday 21 Dec 2014 (Local Time) from SBCO Reporting Station
Moderate Rain Moderate Rain  
Wind Chill: 70°   Ceiling: 1000
Heat Index: 70°   Visibility: 2.5mi
Dew Point: 70°   Wind: 7mph
Humidity: 100%   Direction: 130°SE
Pressure: 29.62"   Gusts: NA
Location:  28.94°S, 51.55°W
Report Text: SBCO 210900Z 13006KT 4000 RA BKN010 SCT025 OVC080 21/21 Q1003
Loading
Personal Weather Stations






























Interactive Weather Map New forecast layout! Learn more

10-Day Weather Forecast

Advertisements
Track Severe Weather on mobile